createdAt,value
2022-11-28T00:01:32.447Z,2.80
2022-11-28T00:04:00.116Z,3.70
2022-11-28T00:06:27.991Z,5.05
2022-11-28T00:08:57.821Z,3.53
2022-11-28T00:11:24.844Z,2.70
2022-11-28T00:13:52.046Z,3.65
2022-11-28T00:16:22.656Z,3.45
2022-11-28T00:18:54.461Z,2.80
2022-11-28T00:21:22.601Z,6.32
2022-11-28T00:23:50.523Z,5.15
2022-11-28T00:26:28.043Z,4.03
2022-11-28T00:28:56.268Z,1.85
2022-11-28T00:31:25.973Z,4.57
2022-11-28T00:33:53.555Z,3.70
2022-11-28T00:36:21.600Z,3.13
2022-11-28T00:38:51.124Z,2.75
2022-11-28T00:41:23.500Z,4.00
2022-11-28T00:46:23.142Z,2.58
2022-11-28T00:48:50.893Z,2.63
2022-11-28T00:51:21.143Z,2.17
2022-11-28T00:53:49.903Z,2.97
2022-11-28T00:56:27.868Z,3.38
2022-11-28T00:58:56.272Z,2.83
2022-11-28T01:01:41.498Z,4.47
2022-11-28T01:04:13.218Z,3.30
2022-11-28T01:06:43.387Z,4.10
2022-11-28T01:09:14.070Z,4.05
2022-11-28T01:11:42.567Z,3.33
2022-11-28T01:14:11.278Z,3.90
2022-11-28T01:16:39.111Z,2.60
2022-11-28T01:19:09.539Z,4.05
2022-11-28T01:21:36.688Z,5.47
2022-11-28T01:24:04.026Z,3.15
2022-11-28T01:26:31.079Z,4.38
2022-11-28T01:29:00.403Z,3.03
2022-11-28T01:31:29.470Z,3.35
2022-11-28T01:33:57.407Z,3.97
2022-11-28T01:36:25.804Z,4.28
2022-11-28T01:38:53.060Z,5.95
2022-11-28T01:41:24.563Z,4.78
2022-11-28T01:44:06.921Z,3.78
2022-11-28T01:46:40.834Z,3.67
2022-11-28T01:49:30.673Z,3.30
2022-11-28T01:52:05.985Z,4.45
2022-11-28T01:54:35.654Z,2.70
2022-11-28T01:57:06.847Z,5.05
2022-11-28T01:59:37.795Z,4.57
2022-11-28T02:02:09.868Z,4.40
2022-11-28T02:07:03.752Z,3.38
2022-11-28T02:09:31.044Z,2.65
2022-11-28T02:12:20.505Z,2.58
2022-11-28T02:15:12.075Z,5.25
2022-11-28T02:17:59.852Z,8.55
2022-11-28T02:20:38.966Z,3.38
2022-11-28T02:23:09.146Z,4.47
2022-11-28T02:25:44.937Z,3.10
2022-11-28T02:28:31.661Z,9.13
2022-11-28T02:31:37.294Z,2.88
2022-11-28T02:34:12.362Z,5.53
2022-11-28T02:36:50.874Z,3.40
2022-11-28T02:39:36.603Z,4.32
2022-11-28T02:42:22.573Z,4.03
2022-11-28T02:45:07.927Z,3.58
2022-11-28T02:47:41.297Z,3.10
2022-11-28T02:50:28.527Z,4.45
2022-11-28T02:53:03.842Z,5.45
2022-11-28T02:55:31.751Z,3.67
2022-11-28T02:57:58.990Z,3.75
2022-11-28T03:00:26.968Z,2.65
2022-11-28T03:03:27.684Z,4.13
2022-11-28T03:06:16.351Z,4.30
2022-11-28T03:08:43.574Z,2.80
2022-11-28T03:11:55.117Z,3.92
2022-11-28T03:14:41.313Z,3.42
2022-11-28T03:17:20.150Z,5.55
2022-11-28T03:19:55.249Z,3.33
2022-11-28T03:22:47.365Z,3.20
2022-11-28T03:25:34.135Z,4.03
2022-11-28T03:28:29.569Z,10.35
2022-11-28T03:31:47.223Z,6.03
2022-11-28T03:34:19.349Z,5.18
2022-11-28T03:36:55.197Z,5.43
2022-11-28T03:39:28.255Z,4.85
2022-11-28T03:41:59.758Z,2.90
2022-11-28T03:44:31.618Z,3.92
2022-11-28T03:47:02.141Z,4.28
2022-11-28T03:49:43.248Z,5.93
2022-11-28T03:52:23.532Z,5.57
2022-11-28T03:54:56.047Z,5.28
2022-11-28T04:00:21.183Z,4.53
2022-11-28T04:03:21.429Z,3.50
2022-11-28T04:06:20.286Z,4.47
2022-11-28T04:08:58.340Z,6.13
2022-11-28T04:11:36.655Z,4.47
2022-11-28T04:14:37.617Z,4.10
2022-11-28T04:17:12.794Z,3.95
2022-11-28T04:19:55.181Z,6.00
2022-11-28T04:22:30.497Z,5.32
2022-11-28T04:25:08.795Z,4.40
2022-11-28T04:27:40.075Z,5.55
2022-11-28T04:30:08.886Z,5.50
2022-11-28T04:32:40.451Z,6.63
2022-11-28T04:35:12.354Z,4.25
2022-11-28T04:37:41.000Z,6.90
2022-11-28T04:40:11.340Z,4.25
2022-11-28T04:42:59.896Z,7.70
2022-11-28T04:45:30.109Z,5.40
2022-11-28T04:47:57.791Z,5.35
2022-11-28T04:50:32.151Z,7.45
2022-11-28T04:53:18.491Z,4.60
2022-11-28T04:55:51.646Z,3.30
2022-11-28T04:58:28.442Z,5.00
2022-11-28T05:00:56.288Z,4.28
2022-11-28T05:03:28.276Z,4.03
2022-11-28T05:05:55.312Z,5.63
2022-11-28T05:08:22.425Z,5.07
2022-11-28T05:10:49.589Z,5.13
2022-11-28T05:13:16.709Z,4.80
2022-11-28T05:15:43.729Z,5.93
2022-11-28T05:18:11.524Z,3.15
2022-11-28T05:20:39.783Z,8.18
2022-11-28T05:23:07.288Z,3.78
2022-11-28T05:25:34.261Z,4.90
2022-11-28T05:28:01.680Z,5.53
2022-11-28T05:30:28.890Z,3.78
2022-11-28T05:32:56.304Z,4.13
2022-11-28T05:35:24.232Z,4.05
2022-11-28T05:37:51.388Z,3.90
2022-11-28T05:40:18.398Z,4.30
2022-11-28T05:42:45.661Z,4.95
2022-11-28T05:45:13.122Z,5.22
2022-11-28T05:47:40.118Z,4.90
2022-11-28T05:50:08.137Z,4.18
2022-11-28T05:52:35.100Z,3.20
2022-11-28T05:55:02.004Z,5.70
2022-11-28T05:57:30.099Z,4.13
2022-11-28T05:59:57.517Z,4.22
2022-11-28T06:02:24.654Z,4.43
2022-11-28T06:04:51.655Z,4.13
2022-11-28T06:07:20.008Z,3.10
2022-11-28T06:09:47.197Z,2.88
2022-11-28T06:12:15.593Z,4.00
2022-11-28T06:14:42.879Z,3.05
2022-11-28T06:17:10.257Z,3.95
2022-11-28T06:19:37.691Z,3.08
2022-11-28T06:22:04.832Z,4.43
2022-11-28T06:24:31.834Z,4.50
2022-11-28T06:26:58.829Z,3.65
2022-11-28T06:29:28.512Z,3.13
2022-11-28T06:31:56.192Z,8.15
2022-11-28T06:34:26.455Z,4.70
2022-11-28T06:36:53.394Z,2.83
2022-11-28T06:39:20.557Z,2.90
2022-11-28T06:41:47.514Z,4.53
2022-11-28T06:44:16.471Z,3.13
2022-11-28T06:46:43.925Z,6.70
2022-11-28T06:49:13.168Z,3.50
2022-11-28T06:51:41.026Z,6.05
2022-11-28T06:54:08.715Z,5.45
2022-11-28T06:56:35.953Z,9.27
2022-11-28T06:59:03.441Z,10.85
2022-11-28T07:01:32.103Z,6.93
2022-11-28T07:03:59.443Z,7.10
2022-11-28T07:06:27.042Z,5.40
2022-11-28T07:08:56.541Z,6.28
2022-11-28T07:11:26.248Z,4.50
2022-11-28T07:13:53.971Z,4.85
2022-11-28T07:16:39.954Z,5.13
2022-11-28T07:19:07.125Z,8.23
2022-11-28T07:21:34.018Z,6.18
2022-11-28T07:24:01.046Z,6.50
2022-11-28T07:26:28.388Z,5.95
2022-11-28T07:28:58.375Z,6.70
2022-11-28T07:31:28.854Z,7.60
2022-11-28T07:33:56.030Z,5.65
2022-11-28T07:36:25.764Z,6.55
2022-11-28T07:38:58.214Z,5.80
2022-11-28T07:41:27.241Z,6.80
2022-11-28T07:43:59.828Z,6.93
2022-11-28T07:46:29.032Z,8.98
2022-11-28T07:48:56.813Z,10.90
2022-11-28T07:51:33.264Z,9.98
2022-11-28T07:54:01.761Z,6.65
2022-11-28T07:57:04.089Z,8.00
2022-11-28T07:59:18.744Z,5.68
2022-11-28T08:01:45.878Z,5.93
2022-11-28T08:04:13.039Z,6.15
2022-11-28T08:06:42.274Z,5.72
2022-11-28T08:09:14.031Z,4.70
2022-11-28T08:11:41.936Z,6.35
2022-11-28T08:14:09.336Z,6.00
2022-11-28T08:16:37.160Z,4.47
2022-11-28T08:19:04.617Z,4.32
2022-11-28T08:21:35.528Z,3.90
2022-11-28T08:24:04.280Z,4.85
2022-11-28T08:26:33.911Z,4.05
2022-11-28T08:29:02.292Z,5.40
2022-11-28T08:31:32.096Z,3.42
2022-11-28T08:34:03.236Z,3.35
2022-11-28T08:36:30.662Z,3.83
2022-11-28T08:41:46.784Z,4.43
2022-11-28T08:44:14.041Z,3.85
2022-11-28T08:46:42.180Z,2.95
2022-11-28T08:49:11.465Z,3.72
2022-11-28T08:51:38.522Z,3.35
2022-11-28T08:54:05.788Z,4.55
2022-11-28T08:56:34.242Z,5.00
2022-11-28T08:59:01.609Z,5.18
2022-11-28T09:01:28.772Z,4.22
2022-11-28T09:03:58.978Z,5.28
2022-11-28T09:06:27.385Z,7.40
2022-11-28T09:08:54.433Z,4.20
2022-11-28T09:11:22.841Z,4.10
2022-11-28T09:13:50.461Z,3.97
2022-11-28T09:16:18.301Z,4.63
2022-11-28T09:18:45.431Z,3.22
2022-11-28T09:21:14.573Z,3.38
2022-11-28T09:23:43.403Z,3.38
2022-11-28T09:26:16.510Z,3.28
2022-11-28T09:28:44.093Z,5.18
2022-11-28T09:31:12.682Z,5.00
2022-11-28T09:33:40.211Z,4.28
2022-11-28T09:36:12.988Z,3.65
2022-11-28T09:38:40.218Z,4.53
2022-11-28T09:41:27.957Z,5.18
2022-11-28T09:44:32.030Z,4.90
2022-11-28T09:47:03.115Z,3.97
2022-11-28T09:49:41.514Z,4.20
2022-11-28T09:52:36.612Z,4.00
2022-11-28T09:55:21.231Z,3.17
2022-11-28T09:57:53.578Z,6.13
2022-11-28T10:00:23.591Z,4.15
2022-11-28T10:03:05.929Z,5.78
2022-11-28T10:08:22.380Z,4.63
2022-11-28T10:10:59.543Z,5.10
2022-11-28T10:13:41.140Z,4.60
2022-11-28T10:16:30.349Z,6.50
2022-11-28T10:19:01.663Z,4.68
2022-11-28T10:21:59.146Z,4.93
2022-11-28T10:24:39.568Z,3.88
2022-11-28T10:27:10.667Z,4.60
2022-11-28T10:32:18.892Z,4.85
2022-11-28T10:35:04.477Z,5.90
2022-11-28T10:37:35.725Z,4.85
2022-11-28T10:40:21.651Z,5.07
2022-11-28T10:43:23.321Z,6.07
2022-11-28T10:46:18.111Z,4.97
2022-11-28T10:49:22.070Z,6.30
2022-11-28T10:52:13.153Z,7.05
2022-11-28T10:55:15.390Z,5.35
2022-11-28T10:58:13.953Z,4.88
2022-11-28T11:00:45.384Z,5.05
2022-11-28T11:03:18.353Z,6.07
2022-11-28T11:05:46.919Z,8.07
2022-11-28T11:08:19.635Z,9.57
2022-11-28T11:11:16.798Z,6.88
2022-11-28T11:14:05.845Z,7.40
2022-11-28T11:16:54.023Z,7.00
2022-11-28T11:19:34.528Z,10.00
2022-11-28T11:22:20.671Z,9.30
2022-11-28T11:25:15.787Z,10.00
2022-11-28T11:28:03.409Z,8.25
2022-11-28T11:30:34.659Z,12.30
2022-11-28T11:33:04.610Z,9.80
2022-11-28T11:35:43.193Z,11.57
2022-11-28T11:38:18.055Z,13.05
2022-11-28T11:40:45.386Z,12.02
2022-11-28T11:43:24.671Z,11.70
2022-11-28T11:46:12.677Z,11.23
2022-11-28T11:48:43.384Z,12.32
2022-11-28T11:51:29.439Z,14.27
2022-11-28T11:54:12.880Z,14.60
2022-11-28T11:56:44.647Z,15.48
2022-11-28T11:59:23.639Z,13.45
2022-11-28T12:01:57.275Z,16.17
2022-11-28T12:04:53.859Z,14.25
2022-11-28T12:07:37.250Z,12.55
2022-11-28T12:10:07.574Z,16.83
2022-11-28T12:12:37.264Z,12.57
2022-11-28T12:15:12.154Z,13.65
2022-11-28T12:18:04.915Z,13.63
2022-11-28T12:20:46.790Z,13.90
2022-11-28T12:23:35.013Z,14.35
2022-11-28T12:26:10.939Z,14.73
2022-11-28T12:28:59.166Z,12.65
2022-11-28T12:31:37.995Z,10.45
2022-11-28T12:34:28.860Z,15.48
2022-11-28T12:37:13.091Z,15.68
2022-11-28T12:40:12.060Z,11.75
2022-11-28T12:42:56.751Z,13.57
2022-11-28T12:45:35.013Z,14.73
2022-11-28T12:48:22.889Z,21.90
2022-11-28T12:51:14.428Z,14.68
2022-11-28T12:53:46.596Z,16.73
2022-11-28T12:56:32.647Z,13.82
2022-11-28T12:59:29.640Z,15.60
2022-11-28T13:02:15.285Z,10.48
2022-11-28T13:05:06.141Z,13.40
2022-11-28T13:07:33.942Z,17.25
2022-11-28T13:10:07.615Z,17.17
2022-11-28T13:13:03.475Z,16.00
2022-11-28T13:15:51.703Z,12.07
2022-11-28T13:18:38.581Z,11.73
2022-11-28T13:21:17.756Z,15.23
2022-11-28T13:23:59.882Z,14.60
2022-11-28T13:26:46.091Z,12.95
2022-11-28T13:29:21.880Z,17.58
2022-11-28T13:31:51.814Z,18.77
2022-11-28T13:34:21.595Z,21.33
2022-11-28T13:39:59.450Z,14.93
2022-11-28T13:43:11.972Z,12.73
2022-11-28T13:45:45.865Z,16.33
2022-11-28T13:49:13.224Z,14.30
2022-11-28T13:51:33.070Z,22.80
2022-11-28T13:54:21.731Z,19.08
2022-11-28T13:57:03.636Z,16.80
2022-11-28T13:59:32.637Z,17.13
2022-11-28T14:02:03.673Z,14.40
2022-11-28T14:04:33.019Z,17.20
2022-11-28T14:07:00.422Z,19.23
2022-11-28T14:09:33.508Z,16.58
2022-11-28T14:12:23.150Z,14.25
2022-11-28T14:15:10.086Z,19.75
2022-11-28T14:17:58.001Z,13.40
2022-11-28T14:20:29.431Z,14.50
2022-11-28T14:23:20.793Z,14.25
2022-11-28T14:25:52.946Z,16.63
2022-11-28T14:28:28.599Z,18.42
2022-11-28T14:33:47.472Z,15.57
2022-11-28T14:36:34.236Z,24.45
2022-11-28T14:39:17.199Z,12.02
2022-11-28T14:42:06.297Z,20.40
2022-11-28T14:44:53.114Z,23.10
2022-11-28T14:47:35.781Z,19.58
2022-11-28T14:50:06.658Z,15.95
2022-11-28T14:52:39.471Z,22.65
2022-11-28T14:55:12.001Z,18.42
2022-11-28T14:57:45.557Z,15.52
2022-11-28T15:00:24.516Z,17.52
2022-11-28T15:03:30.072Z,22.17
2022-11-28T15:06:16.948Z,17.73
2022-11-28T15:09:02.742Z,22.65
2022-11-28T15:11:58.993Z,23.30
2022-11-28T15:14:28.470Z,19.10
2022-11-28T15:17:10.528Z,26.58
2022-11-28T15:22:48.033Z,22.95
2022-11-28T15:25:37.553Z,18.65
2022-11-28T15:28:14.955Z,19.30
2022-11-28T15:30:53.618Z,16.85
2022-11-28T15:33:21.847Z,19.15
2022-11-28T15:36:13.250Z,17.48
2022-11-28T15:38:43.820Z,19.95
2022-11-28T15:41:11.600Z,22.67
2022-11-28T15:43:42.774Z,19.17
2022-11-28T15:46:31.518Z,24.00
2022-11-28T15:49:01.966Z,19.38
2022-11-28T15:51:33.700Z,20.92
2022-11-28T15:54:03.492Z,19.88
2022-11-28T15:56:30.879Z,21.48
2022-11-28T15:58:58.861Z,20.15
2022-11-28T16:01:27.704Z,27.15
2022-11-28T16:04:27.718Z,31.38
2022-11-28T16:06:58.622Z,22.25
2022-11-28T16:09:31.143Z,20.35
2022-11-28T16:11:58.757Z,20.40
2022-11-28T16:14:31.934Z,28.75
2022-11-28T16:17:01.855Z,27.90
2022-11-28T16:19:33.207Z,25.88
2022-11-28T16:22:03.194Z,21.70
2022-11-28T16:24:43.102Z,24.08
2022-11-28T16:27:29.302Z,21.33
2022-11-28T16:29:59.139Z,19.23
2022-11-28T16:32:40.218Z,21.90
2022-11-28T16:35:12.597Z,20.85
2022-11-28T16:37:39.934Z,22.83
2022-11-28T16:40:15.122Z,24.70
2022-11-28T16:42:42.968Z,21.13
2022-11-28T16:45:16.299Z,21.73
2022-11-28T16:47:45.740Z,26.55
2022-11-28T16:50:24.994Z,20.85
2022-11-28T16:52:54.113Z,21.17
2022-11-28T16:55:30.453Z,22.75
2022-11-28T16:58:11.681Z,17.42
2022-11-28T17:00:40.812Z,26.17
2022-11-28T17:03:11.704Z,20.90
2022-11-28T17:08:08.563Z,16.95
2022-11-28T17:10:35.677Z,23.38
2022-11-28T17:13:02.621Z,23.08
2022-11-28T17:15:29.681Z,20.38
2022-11-28T17:17:57.793Z,19.95
2022-11-28T17:20:25.057Z,22.92
2022-11-28T17:22:54.416Z,24.02
2022-11-28T17:25:21.416Z,28.48
2022-11-28T17:27:48.917Z,19.88
2022-11-28T17:30:18.810Z,24.13
2022-11-28T17:32:49.043Z,24.25
2022-11-28T17:35:24.437Z,22.77
2022-11-28T17:37:51.456Z,27.25
2022-11-28T17:40:33.816Z,20.55
2022-11-28T17:43:01.407Z,20.92
2022-11-28T17:45:34.228Z,22.48
2022-11-28T17:48:02.221Z,24.98
2022-11-28T17:50:30.630Z,18.33
2022-11-28T17:52:58.072Z,26.00
2022-11-28T17:55:25.835Z,22.38
2022-11-28T17:57:55.761Z,22.55
2022-11-28T18:00:23.933Z,21.35
2022-11-28T18:02:53.966Z,28.80
2022-11-28T18:05:22.124Z,28.35
2022-11-28T18:07:50.235Z,29.48
2022-11-28T18:10:17.483Z,22.23
2022-11-28T18:12:44.574Z,24.83
2022-11-28T18:15:11.723Z,27.38
2022-11-28T18:17:39.492Z,28.75
2022-11-28T18:20:07.879Z,21.45
2022-11-28T18:22:35.012Z,29.00
2022-11-28T18:25:02.841Z,26.25
2022-11-28T18:27:30.002Z,25.05
2022-11-28T18:29:58.310Z,30.55
2022-11-28T18:32:26.071Z,37.83
2022-11-28T18:34:53.981Z,28.88
2022-11-28T18:37:21.127Z,29.88
2022-11-28T18:39:48.981Z,30.30
2022-11-28T18:42:18.292Z,25.77
2022-11-28T18:44:45.629Z,31.67
2022-11-28T18:47:13.289Z,28.40
2022-11-28T18:49:40.964Z,28.88
2022-11-28T18:52:08.489Z,29.33
2022-11-28T18:54:39.333Z,32.03
2022-11-28T18:57:08.436Z,30.48
2022-11-28T18:59:36.590Z,30.67
2022-11-28T19:02:03.961Z,33.03
2022-11-28T19:04:31.247Z,37.38
2022-11-28T19:06:59.807Z,25.38
2022-11-28T19:09:27.100Z,32.83
2022-11-28T19:11:56.243Z,24.88
2022-11-28T19:14:24.941Z,24.27
2022-11-28T19:16:54.211Z,18.17
2022-11-28T19:19:21.864Z,24.05
2022-11-28T19:21:50.040Z,21.02
2022-11-28T19:24:18.395Z,28.33
2022-11-28T19:26:46.720Z,21.08
2022-11-28T19:29:14.155Z,27.15
2022-11-28T19:31:45.842Z,27.65
2022-11-28T19:36:52.383Z,36.78
2022-11-28T19:39:22.606Z,31.00
2022-11-28T19:41:52.672Z,26.95
2022-11-28T19:44:24.699Z,24.35
2022-11-28T19:46:53.720Z,26.15
2022-11-28T19:49:24.897Z,21.60
2022-11-28T19:51:54.903Z,21.15
2022-11-28T19:55:13.887Z,26.13
2022-11-28T19:57:44.298Z,27.55
2022-11-28T20:00:12.534Z,29.35
2022-11-28T20:02:47.954Z,30.50
2022-11-28T20:05:15.843Z,25.40
2022-11-28T20:07:43.352Z,24.05
2022-11-28T20:10:12.630Z,20.73
2022-11-28T20:12:40.014Z,20.88
2022-11-28T20:15:11.475Z,21.52
2022-11-28T20:17:42.323Z,20.73
2022-11-28T20:20:11.002Z,21.73
2022-11-28T20:22:38.993Z,16.60
2022-11-28T20:25:10.527Z,17.15
2022-11-28T20:27:39.861Z,18.45
2022-11-28T20:30:07.886Z,15.55
2022-11-28T20:32:35.883Z,15.75
2022-11-28T20:35:09.474Z,16.02
2022-11-28T20:37:48.961Z,23.38
2022-11-28T20:40:20.633Z,24.85
2022-11-28T20:42:51.409Z,17.33
2022-11-28T20:45:24.950Z,21.38
2022-11-28T20:47:52.465Z,16.95
2022-11-28T20:50:20.721Z,24.10
2022-11-28T20:52:48.105Z,19.45
2022-11-28T20:55:15.500Z,17.63
2022-11-28T20:57:42.692Z,21.60
2022-11-28T21:00:12.775Z,17.65
2022-11-28T21:02:40.857Z,17.45
2022-11-28T21:05:08.532Z,18.98
2022-11-28T21:07:36.022Z,23.00
2022-11-28T21:10:05.100Z,22.52
2022-11-28T21:12:34.485Z,17.98
2022-11-28T21:15:03.601Z,24.75
2022-11-28T21:17:31.729Z,19.75
2022-11-28T21:19:58.867Z,14.80
2022-11-28T21:22:26.087Z,16.80
2022-11-28T21:24:53.472Z,17.75
2022-11-28T21:27:20.512Z,24.90
2022-11-28T21:29:52.468Z,17.95
2022-11-28T21:32:20.386Z,15.38
2022-11-28T21:34:47.843Z,23.85
2022-11-28T21:37:14.991Z,29.40
2022-11-28T21:39:42.496Z,18.55
2022-11-28T21:42:09.894Z,20.08
2022-11-28T21:44:38.896Z,22.20
2022-11-28T21:47:08.614Z,22.48
2022-11-28T21:49:35.972Z,21.00
2022-11-28T21:52:03.271Z,23.60
2022-11-28T21:54:31.874Z,24.15
2022-11-28T21:57:00.378Z,17.13
2022-11-28T21:59:28.340Z,31.17
2022-11-28T22:01:56.668Z,25.60
2022-11-28T22:04:24.074Z,23.13
2022-11-28T22:06:56.656Z,18.17
2022-11-28T22:09:24.622Z,20.75
2022-11-28T22:11:55.865Z,23.92
2022-11-28T22:14:23.025Z,25.17
2022-11-28T22:16:50.671Z,20.73
2022-11-28T22:19:19.584Z,14.38
2022-11-28T22:21:51.879Z,22.48
2022-11-28T22:24:22.570Z,21.15
2022-11-28T22:26:51.200Z,22.13
2022-11-28T22:29:19.652Z,17.45
2022-11-28T22:31:46.787Z,23.65
2022-11-28T22:34:14.527Z,15.40
2022-11-28T22:36:41.767Z,26.23
2022-11-28T22:39:10.853Z,18.10
2022-11-28T22:41:38.492Z,22.33
2022-11-28T22:44:05.834Z,19.13
2022-11-28T22:46:33.976Z,19.55
2022-11-28T22:49:02.381Z,21.48
2022-11-28T22:51:31.670Z,20.05
2022-11-28T22:54:02.206Z,21.45
2022-11-28T22:56:34.133Z,16.33
2022-11-28T22:59:05.239Z,20.23
2022-11-28T23:01:35.003Z,15.10
2022-11-28T23:04:02.724Z,19.55
2022-11-28T23:06:32.863Z,18.35
2022-11-28T23:09:03.908Z,24.40
2022-11-28T23:11:33.365Z,18.47
2022-11-28T23:14:02.113Z,21.92
2022-11-28T23:16:37.946Z,18.23
2022-11-28T23:19:12.355Z,20.35
2022-11-28T23:21:43.230Z,14.65
2022-11-28T23:24:15.203Z,20.85
2022-11-28T23:26:45.436Z,15.32
2022-11-28T23:29:13.780Z,23.17
2022-11-28T23:31:43.652Z,19.98
2022-11-28T23:34:12.077Z,21.88
2022-11-28T23:36:45.132Z,16.50
2022-11-28T23:39:15.534Z,13.65
2022-11-28T23:41:43.665Z,20.20
2022-11-28T23:44:12.643Z,13.88
2022-11-28T23:46:41.035Z,22.50
2022-11-28T23:49:08.451Z,22.73
2022-11-28T23:51:35.727Z,19.45
2022-11-28T23:54:04.023Z,14.90
2022-11-28T23:56:34.157Z,19.10
2022-11-28T23:59:03.355Z,15.18
